Weather History for Chippewa, MI

Change the Weather History Date:

Sunday, September 7, 2014

  Actual Average Record
Temperature  
Mean Temperature 58 °F -  
Max Temperature 73 °F 69 °F 82 °F (2002)
Min Temperature 44 °F 45 °F 32 °F (1984)
Degree Days  
Heating Degree Days 6    
Growing Degree Days 8 (Base 50)    
Moisture  
Dew Point 53 °F    
Average Humidity 77    
Maximum Humidity 100    
Minimum Humidity 50    
Precipitation  
Precipitation 0.00 in - - ()
Sea Level Pressure  
Sea Level Pressure 30.11 in    
Wind  
Wind Speed 6 mph (SW)    
Max Wind Speed 14 mph    
Max Gust Speed 24 mph    
Visibility 10 miles    
Events      
Averages and records for this station are not official NWS values.
T = Trace of Precipitation, MM = Missing Value Source: NWS Daily Summary

Daily Weather History Graph

Daily Weather History Graph

Search for Another Location

Airport:

Trip Planner

Search our weather history database for the weather conditions in past years. The results will help you decide how hot, cold, wet, or windy it might be!

Date:

Astronomy

Sep. 07, 2014 Rise Set
Actual Time 7:05 AM EDT 8:05 PM EDT
Civil Twilight 6:35 AM EDT 8:35 PM EDT
Nautical Twilight 5:58 AM EDT 9:12 PM EDT
Astronomical Twilight 5:19 AM EDT 9:50 PM EDT
Moon 7:05 PM EDT (9/7) 5:13 AM EDT (9/7)
Length of Visible Light 14h 00m
Length of Day
12h 59m
Waxing Gibbous, 97% of the Moon is Illuminated
Sep 7
Waxing Gibbous
Sep 8
Full
Sep 15
Last Quarter
Sep 24
New
Oct 1
First Quarter

Hourly Weather History & Observations

Time (EDT) Temp. Windchill Dew Point Humidity Pressure Visibility Wind Dir Wind Speed Gust Speed Precip Events Conditions
12:15 AM 50.0 °F - 46.4 °F 87% 30.10 in 10.0 mi West 6.9 mph - N/A   Clear
12:35 AM 48.2 °F - 46.4 °F 93% 30.10 in 10.0 mi West 5.8 mph - N/A   Clear
12:55 AM 48.2 °F - 46.4 °F 93% 30.10 in 10.0 mi WSW 4.6 mph - N/A   Clear
1:15 AM 48.2 °F - 46.4 °F 93% 30.10 in 10.0 mi WSW 4.6 mph - N/A   Clear
1:35 AM 46.4 °F 44.3 °F 46.4 °F 100% 30.11 in 10.0 mi SW 4.6 mph - N/A   Clear
1:55 AM 46.4 °F - 44.6 °F 93% 30.11 in 10.0 mi Calm Calm - N/A   Clear
2:15 AM 46.4 °F - 44.6 °F 93% 30.11 in 10.0 mi Calm Calm - N/A   Clear
2:35 AM 44.6 °F - 44.6 °F 100% 30.11 in 10.0 mi Calm Calm - N/A   Clear
2:55 AM 44.6 °F 42.2 °F 42.8 °F 93% 30.10 in 10.0 mi SSW 4.6 mph - N/A   Clear
3:35 AM 46.4 °F 44.3 °F 44.6 °F 93% 30.11 in 10.0 mi SSW 4.6 mph - N/A   Clear
3:55 AM 46.4 °F 44.3 °F 44.6 °F 93% 30.11 in 10.0 mi SSW 4.6 mph - N/A   Clear
4:15 AM 48.2 °F - 44.6 °F 87% 30.11 in 10.0 mi SSW 3.5 mph - N/A   Clear
4:35 AM 50.0 °F - 46.4 °F 87% 30.10 in 10.0 mi SW 3.5 mph - N/A   Clear
4:55 AM 50.0 °F - 46.4 °F 87% 30.10 in 10.0 mi SW 4.6 mph - N/A   Clear
5:15 AM 50.0 °F - 46.4 °F 87% 30.10 in 10.0 mi SSW 4.6 mph - N/A   Clear
5:35 AM 50.0 °F - 46.4 °F 87% 30.10 in 10.0 mi SSW 4.6 mph - N/A   Clear
5:55 AM 51.8 °F - 48.2 °F 88% 30.11 in 10.0 mi SW 4.6 mph - N/A   Clear
6:15 AM 50.0 °F - 48.2 °F 94% 30.11 in 10.0 mi SSW 4.6 mph - N/A   Clear
6:35 AM 51.8 °F - 48.2 °F 88% 30.11 in 10.0 mi SSW 3.5 mph - N/A   Clear
6:55 AM 50.0 °F - 48.2 °F 94% 30.12 in 10.0 mi SSW 3.5 mph - N/A   Clear
7:15 AM 51.8 °F - 50.0 °F 94% 30.12 in 10.0 mi SSW 4.6 mph - N/A   Clear
7:35 AM 53.6 °F - 51.8 °F 94% 30.12 in 10.0 mi SSW 4.6 mph - N/A   Clear
7:55 AM 53.6 °F - 53.6 °F 100% 30.12 in 10.0 mi South 5.8 mph - N/A   Clear
8:15 AM 55.4 °F - 53.6 °F 94% 30.12 in 10.0 mi South 4.6 mph - N/A   Clear
8:35 AM 57.2 °F - 53.6 °F 88% 30.12 in 10.0 mi SSW 5.8 mph - N/A   Clear
8:55 AM 59.0 °F - 55.4 °F 88% 30.12 in 10.0 mi SSW 4.6 mph - N/A   Clear
9:15 AM 60.8 °F - 55.4 °F 82% 30.12 in 10.0 mi SW 5.8 mph - N/A   Clear
9:35 AM 60.8 °F - 55.4 °F 82% 30.12 in 10.0 mi SW 4.6 mph - N/A   Clear
9:55 AM 62.6 °F - 55.4 °F 77% 30.12 in 10.0 mi SSW 8.1 mph - N/A   Clear
10:15 AM 64.4 °F - 55.4 °F 73% 30.12 in 10.0 mi SSW 8.1 mph - N/A   Clear
10:35 AM 66.2 °F - 57.2 °F 73% 30.12 in 10.0 mi SW 6.9 mph - N/A   Clear
10:55 AM 66.2 °F - 57.2 °F 73% 30.12 in 10.0 mi SSW 8.1 mph - N/A   Clear
11:15 AM 68.0 °F - 55.4 °F 64% 30.12 in 10.0 mi SW 13.8 mph 17.3 mph N/A   Clear
11:35 AM 69.8 °F - 57.2 °F 64% 30.12 in 10.0 mi SW 9.2 mph 16.1 mph N/A   Partly Cloudy
11:55 AM 69.8 °F - 55.4 °F 60% 30.12 in 10.0 mi SSW 10.4 mph 17.3 mph N/A   Clear
12:15 PM 69.8 °F - 55.4 °F 60% 30.11 in 10.0 mi SSW 9.2 mph 21.9 mph N/A   Clear
12:35 PM 71.6 °F - 55.4 °F 57% 30.11 in 10.0 mi SSW 11.5 mph 17.3 mph N/A   Clear
12:55 PM 71.6 °F - 55.4 °F 57% 30.11 in 10.0 mi SW 13.8 mph 21.9 mph N/A   Clear
1:15 PM 71.6 °F - 55.4 °F 57% 30.10 in 10.0 mi SW 11.5 mph 19.6 mph N/A   Clear
1:35 PM 71.6 °F - 55.4 °F 57% 30.10 in 10.0 mi WSW 12.7 mph 23.0 mph N/A   Clear
1:55 PM 71.6 °F - 55.4 °F 57% 30.10 in 10.0 mi SW 13.8 mph 24.2 mph N/A   Clear
2:15 PM 71.6 °F - 55.4 °F 57% 30.10 in 10.0 mi SW 11.5 mph 21.9 mph N/A   Clear
2:35 PM 73.4 °F - 55.4 °F 53% 30.09 in 10.0 mi SW 12.7 mph 19.6 mph N/A   Clear
2:55 PM 73.4 °F - 53.6 °F 50% 30.09 in 10.0 mi SW 12.7 mph 23.0 mph N/A   Clear
3:15 PM 71.6 °F - 53.6 °F 53% 30.09 in 10.0 mi SW 10.4 mph 21.9 mph N/A   Mostly Cloudy
3:35 PM 73.4 °F - 55.4 °F 53% 30.09 in 10.0 mi WSW 11.5 mph 23.0 mph N/A   Overcast
3:55 PM 73.4 °F - 55.4 °F 53% 30.10 in 10.0 mi SW 10.4 mph 17.3 mph N/A   Mostly Cloudy
4:15 PM 73.4 °F - 55.4 °F 53% 30.09 in 10.0 mi SSW 11.5 mph 20.7 mph N/A   Partly Cloudy
4:35 PM 71.6 °F - 55.4 °F 57% 30.09 in 10.0 mi SSW 11.5 mph 17.3 mph N/A   Partly Cloudy
4:55 PM 73.4 °F - 55.4 °F 53% 30.09 in 10.0 mi SW 10.4 mph 18.4 mph N/A   Mostly Cloudy
5:15 PM 71.6 °F - 55.4 °F 57% 30.09 in 10.0 mi SSW 5.8 mph - N/A   Overcast
5:35 PM 71.6 °F - 55.4 °F 57% 30.09 in 10.0 mi SSW 10.4 mph - N/A   Overcast
5:55 PM 71.6 °F - 57.2 °F 60% 30.10 in 10.0 mi SW 4.6 mph - N/A   Overcast
6:15 PM 69.8 °F - 57.2 °F 64% 30.09 in 10.0 mi SSW 5.8 mph - N/A   Mostly Cloudy
6:35 PM 69.8 °F - 57.2 °F 64% 30.09 in 10.0 mi SSW 4.6 mph - N/A   Mostly Cloudy
6:55 PM 69.8 °F - 57.2 °F 64% 30.10 in 10.0 mi SW 4.6 mph - N/A   Overcast
7:35 PM 68.0 °F - 57.2 °F 68% 30.10 in 10.0 mi SW 4.6 mph - N/A   Overcast
7:55 PM 66.2 °F - 57.2 °F 73% 30.10 in 10.0 mi SW 5.8 mph - N/A   Overcast
8:15 PM 66.2 °F - 59.0 °F 78% 30.10 in 10.0 mi SW 4.6 mph - N/A   Overcast
8:35 PM 64.4 °F - 59.0 °F 83% 30.10 in 10.0 mi SSW 4.6 mph - N/A   Scattered Clouds
8:55 PM 64.4 °F - 59.0 °F 83% 30.11 in 10.0 mi SSW 3.5 mph - N/A   Clear
9:15 PM 62.6 °F - 59.0 °F 88% 30.11 in 10.0 mi South 3.5 mph - N/A   Mostly Cloudy
9:35 PM 62.6 °F - 59.0 °F 88% 30.11 in 10.0 mi SSW 3.5 mph - N/A   Overcast
9:55 PM 62.6 °F - 59.0 °F 88% 30.11 in 10.0 mi South 4.6 mph - N/A   Overcast
10:15 PM 62.6 °F - 59.0 °F 88% 30.12 in 10.0 mi South 3.5 mph - N/A   Overcast
10:35 PM 62.6 °F - 59.0 °F 88% 30.12 in 10.0 mi SSW 4.6 mph - N/A   Overcast
10:55 PM 62.6 °F - 60.8 °F 94% 30.12 in 10.0 mi SW 3.5 mph - N/A   Overcast
11:15 PM 62.6 °F - 60.8 °F 94% 30.12 in 10.0 mi South 4.6 mph - N/A   Scattered Clouds
11:35 PM 60.8 °F - 60.8 °F 100% 30.12 in 10.0 mi SSW 4.6 mph - N/A   Clear